Time;durP1;ratioP1;P1;durP2;ratioP2;P2;SDS_P1;SDS_P2;PMS_P1;PMS_P2;Temp;Humidity;BMP_temperature;BMP_pressure;BME280_temperature;BME280_humidity;BME280_pressure;Samples;Min_cycle;Max_cycle;Signal;HPM_P1;HPM_P2
2024/03/12 00:00:15;;;;;;;5.00;3.97;;;;;;;7.61;96.82;153313.78;4997515;28;20446;-74
2024/03/12 00:02:44;;;;;;;4.50;3.83;;;;;;;7.64;97.69;153321.56;5011832;28;20460;-74
2024/03/12 00:05:13;;;;;;;4.57;3.67;;;;;;;7.53;97.00;153293.13;5025623;28;20444;-74
2024/03/12 00:07:40;;;;;;;3.90;3.10;;;;;;;7.45;96.72;153272.47;5028313;28;20494;-74
2024/03/12 00:10:09;;;;;;;4.60;4.20;;;;;;;7.40;97.08;153260.84;5020915;28;20901;-74
2024/03/12 00:12:36;;;;;;;4.80;3.67;;;;;;;7.36;97.18;153251.78;5030941;28;20526;-74
2024/03/12 00:15:05;;;;;;;5.40;3.80;;;;;;;7.30;97.05;153235.03;5004790;28;20534;-74
2024/03/12 00:17:32;;;;;;;4.83;4.37;;;;;;;7.30;97.56;153235.03;5009486;28;20558;-74
2024/03/12 00:19:59;;;;;;;4.37;3.40;;;;;;;7.32;98.25;153240.19;5008643;28;20451;-74
2024/03/12 00:22:26;;;;;;;5.17;4.67;;;;;;;7.31;98.26;153237.59;5031690;28;20480;-74
2024/03/12 00:24:52;;;;;;;4.57;4.00;;;;;;;7.33;99.06;153244.03;5025639;28;20456;-74
2024/03/12 00:27:21;;;;;;;5.47;3.90;;;;;;;7.33;99.24;153242.78;5028540;28;20490;-74
2024/03/12 00:29:49;;;;;;;4.43;3.93;;;;;;;7.28;99.54;153231.13;5026166;28;20455;-74
2024/03/12 00:32:17;;;;;;;4.40;4.00;;;;;;;7.29;99.98;153232.44;5028603;28;20452;-74
2024/03/12 00:34:44;;;;;;;4.17;3.77;;;;;;;7.28;100.00;153229.88;5021910;28;20471;-74
2024/03/12 00:37:10;;;;;;;5.17;4.67;;;;;;;7.28;100.00;153231.13;5016265;28;21049;-74
2024/03/12 00:39:37;;;;;;;5.30;4.37;;;;;;;7.23;100.00;153216.91;5033289;28;20442;-74
2024/03/12 00:42:06;;;;;;;4.80;3.77;;;;;;;7.21;100.00;153213.06;5007200;28;21083;-74
2024/03/12 00:44:34;;;;;;;4.63;4.03;;;;;;;7.15;100.00;153196.25;5021856;28;20448;-74
2024/03/12 00:47:01;;;;;;;6.50;5.03;;;;;;;7.16;100.00;153198.84;5009147;28;20997;-74
2024/03/12 00:49:30;;;;;;;5.13;3.60;;;;;;;7.12;100.00;153189.81;5028116;28;20984;-74
2024/03/12 00:51:57;;;;;;;5.00;3.80;;;;;;;7.10;100.00;153184.66;5025441;28;20470;-74
2024/03/12 00:54:24;;;;;;;5.53;4.20;;;;;;;7.13;100.00;153192.41;5009024;28;20436;-74
2024/03/12 00:56:51;;;;;;;4.60;4.13;;;;;;;7.04;100.00;153169.16;5024750;28;20459;-74
2024/03/12 00:59:18;;;;;;;4.90;4.40;;;;;;;6.98;100.00;153152.38;5027800;28;21033;-74
2024/03/12 01:01:46;;;;;;;5.00;4.17;;;;;;;6.97;100.00;153151.09;5007108;28;20461;-74
2024/03/12 01:04:16;;;;;;;6.37;3.67;;;;;;;6.89;100.00;153130.44;5032096;28;20867;-74
2024/03/12 01:06:44;;;;;;;4.67;3.93;;;;;;;6.90;100.00;153131.72;4996685;28;20460;-74
2024/03/12 01:09:13;;;;;;;4.60;3.83;;;;;;;6.80;100.00;153107.22;5021502;28;20553;-74
2024/03/12 01:11:40;;;;;;;4.00;3.57;;;;;;;6.74;100.00;153093.03;5034273;28;20518;-74
2024/03/12 01:14:07;;;;;;;4.50;4.10;;;;;;;6.77;100.00;153099.47;5029779;28;20474;-74
2024/03/12 01:16:33;;;;;;;4.00;3.60;;;;;;;6.75;100.00;153094.31;5006261;28;20460;-74
2024/03/12 01:19:01;;;;;;;4.40;4.00;;;;;;;6.74;100.00;153091.72;5001659;28;20457;-74
2024/03/12 01:21:28;;;;;;;5.40;4.40;;;;;;;6.74;100.00;153091.72;5014123;28;20981;-74
2024/03/12 01:23:55;;;;;;;4.33;3.83;;;;;;;6.69;100.00;153080.13;5026829;28;20467;-74
2024/03/12 01:26:25;;;;;;;4.80;3.87;;;;;;;6.65;100.00;153068.47;5008444;28;20440;-74
2024/03/12 01:28:51;;;;;;;4.97;4.40;;;;;;;6.58;100.00;153051.72;5030390;28;21059;-74
2024/03/12 01:31:18;;;;;;;5.40;4.60;;;;;;;6.56;100.00;153046.56;5029398;28;21005;-74
2024/03/12 01:33:44;;;;;;;5.23;4.57;;;;;;;6.53;100.00;153037.50;5025702;28;20526;-74
2024/03/12 01:36:20;;;;;;;5.50;4.20;;;;;;;6.49;100.00;153027.16;5010272;28;20439;-74
2024/03/12 01:38:48;;;;;;;4.00;3.60;;;;;;;6.49;100.00;153028.47;5027643;28;20459;-74
2024/03/12 01:41:15;;;;;;;5.20;4.40;;;;;;;6.44;100.00;153014.28;5020615;28;20476;-74
2024/03/12 01:43:45;;;;;;;4.90;3.90;;;;;;;6.39;100.00;153002.66;5024129;28;20966;-74
2024/03/12 01:46:12;;;;;;;5.57;3.87;;;;;;;6.35;100.00;152991.06;5007861;28;20461;-74
2024/03/12 01:48:39;;;;;;;3.80;3.40;;;;;;;6.32;100.00;152984.63;5025794;28;21019;-74
2024/03/12 01:51:06;;;;;;;3.87;3.53;;;;;;;6.33;100.00;152987.16;5010027;28;20433;-74
2024/03/12 01:53:33;;;;;;;4.77;3.90;;;;;;;6.33;100.00;152985.91;5024516;28;21720;-74
2024/03/12 01:56:00;;;;;;;4.13;3.70;;;;;;;6.35;100.00;152991.06;5023805;28;20768;-74
2024/03/12 01:58:27;;;;;;;3.97;3.57;;;;;;;6.35;100.00;152991.06;5008970;28;20471;-74
2024/03/12 02:01:19;;;;;;;4.77;3.97;;;;;;;6.35;100.00;152991.06;5033384;28;20431;-74
2024/03/12 02:03:48;;;;;;;4.77;3.67;;;;;;;6.33;100.00;152985.91;5030636;28;20450;-74
2024/03/12 02:06:14;;;;;;;4.80;3.80;;;;;;;6.29;100.00;152975.56;5003424;28;20552;-74
2024/03/12 02:08:42;;;;;;;4.27;3.87;;;;;;;6.29;100.00;152976.88;5003901;28;20483;-74
2024/03/12 02:11:10;;;;;;;4.07;3.67;;;;;;;6.29;100.00;152975.56;5034911;28;20446;-74
2024/03/12 02:13:36;;;;;;;3.77;3.43;;;;;;;6.28;100.00;152972.97;5033478;28;20467;-74
2024/03/12 02:16:03;;;;;;;6.13;4.10;;;;;;;6.30;100.00;152978.16;5024430;28;20455;-74
2024/03/12 02:18:31;;;;;;;5.40;4.10;;;;;;;6.28;100.00;152972.97;5028048;28;20457;-74
2024/03/12 02:20:58;;;;;;;4.30;3.90;;;;;;;6.25;100.00;152966.53;5004934;28;20970;-74
2024/03/12 02:23:35;;;;;;;5.20;4.23;;;;;;;6.23;100.00;152961.38;5032835;28;20446;-74
2024/03/12 02:26:03;;;;;;;4.33;3.93;;;;;;;6.23;100.00;152960.06;5027282;28;20477;-74
2024/03/12 02:28:29;;;;;;;4.80;4.03;;;;;;;6.13;100.00;152936.88;4996713;28;20802;-74
2024/03/12 02:30:56;;;;;;;4.40;4.00;;;;;;;6.10;100.00;152927.84;5015254;28;20440;-74
2024/03/12 02:33:23;;;;;;;4.83;3.90;;;;;;;6.06;100.00;152918.78;5020302;28;20449;-74
2024/03/12 02:35:49;;;;;;;5.00;3.97;;;;;;;6.08;100.00;152923.97;5036673;28;20466;-74
2024/03/12 02:38:16;;;;;;;4.47;4.07;;;;;;;6.07;100.00;152921.38;5031595;28;20463;-74
2024/03/12 02:40:45;;;;;;;4.13;3.70;;;;;;;6.07;100.00;152920.09;5032745;28;20523;-74
2024/03/12 02:43:13;;;;;;;4.40;4.00;;;;;;;6.00;100.00;152903.34;4989307;28;20475;-74
2024/03/12 02:45:40;;;;;;;4.87;3.80;;;;;;;6.01;100.00;152905.88;5021728;28;20440;-74
2024/03/12 02:48:09;;;;;;;6.93;4.40;;;;;;;5.96;100.00;152893.00;4999297;28;20480;-74
2024/03/12 02:50:36;;;;;;;4.73;3.50;;;;;;;5.96;100.00;152891.69;5028270;28;20459;-74
2024/03/12 02:53:02;;;;;;;4.77;4.17;;;;;;;5.96;100.00;152891.69;5010011;28;20834;-74
2024/03/12 02:56:00;;;;;;;4.07;3.67;;;;;;;5.96;100.00;152893.00;5017234;28;20553;-74
2024/03/12 02:58:27;;;;;;;4.17;3.60;;;;;;;5.94;100.00;152886.56;4994942;28;20463;-74
2024/03/12 03:00:54;;;;;;;4.70;3.80;;;;;;;5.91;100.00;152880.09;5003640;28;20446;-74
2024/03/12 03:03:22;;;;;;;4.80;3.77;;;;;;;5.90;100.00;152876.25;5024078;28;20657;-74
2024/03/12 03:05:49;;;;;;;4.47;3.87;;;;;;;5.86;100.00;152867.22;5006423;28;20968;-74
2024/03/12 03:08:16;;;;;;;4.37;3.97;;;;;;;5.87;100.00;152869.81;4989942;28;20545;-74
2024/03/12 03:10:42;;;;;;;4.27;3.67;;;;;;;5.82;100.00;152856.88;5022740;28;20945;-74
2024/03/12 03:13:10;;;;;;;5.27;4.63;;;;;;;5.79;100.00;152849.13;5005454;28;20459;-74
2024/03/12 03:15:37;;;;;;;4.60;4.07;;;;;;;5.76;100.00;152840.06;5026851;28;20440;-74
2024/03/12 03:18:03;;;;;;;5.33;4.40;;;;;;;5.75;100.00;152838.78;5028902;28;20487;-74
2024/03/12 03:20:30;;;;;;;4.50;3.30;;;;;;;5.75;100.00;152838.78;5022865;28;20494;-73
2024/03/12 03:22:56;;;;;;;4.13;3.73;;;;;;;5.72;100.00;152831.03;5022374;28;20487;-73
2024/03/12 03:25:23;;;;;;;4.57;3.53;;;;;;;5.71;100.00;152828.47;5021347;28;20456;-74
2024/03/12 03:27:49;;;;;;;4.00;3.60;;;;;;;5.74;100.00;152834.94;5004880;28;20448;-74
2024/03/12 03:30:18;;;;;;;4.60;4.03;;;;;;;5.74;100.00;152834.94;4997972;28;20461;-74
2024/03/12 03:32:44;;;;;;;4.63;4.00;;;;;;;5.70;100.00;152825.88;5005968;28;20558;-73
2024/03/12 03:35:13;;;;;;;4.20;3.73;;;;;;;5.68;100.00;152820.75;5004471;28;20542;-74
2024/03/12 03:37:40;;;;;;;5.37;4.87;;;;;;;5.69;100.00;152823.34;5018527;28;20445;-75
2024/03/12 03:40:10;;;;;;;4.33;3.77;;;;;;;5.71;100.00;152828.47;5021754;28;20436;-73
2024/03/12 03:42:37;;;;;;;5.17;3.80;;;;;;;5.73;100.00;152833.63;5021129;28;20479;-75
2024/03/12 03:45:04;;;;;;;3.57;3.13;;;;;;;5.79;100.00;152849.13;5018451;28;20456;-75
2024/03/12 03:47:34;;;;;;;4.70;4.20;;;;;;;5.82;100.00;152856.88;5018110;28;20444;-75
2024/03/12 03:50:02;;;;;;;5.20;3.87;;;;;;;5.85;100.00;152864.63;5029153;28;20428;-75
2024/03/12 03:52:29;;;;;;;5.13;4.00;;;;;;;5.90;100.00;152877.56;5000199;28;20454;-75
2024/03/12 03:54:55;;;;;;;4.10;3.43;;;;;;;5.94;100.00;152886.56;5027453;28;20444;-75
2024/03/12 03:57:22;;;;;;;4.00;3.40;;;;;;;5.96;100.00;152891.69;5017890;28;20513;-75
2024/03/12 03:59:49;;;;;;;4.20;3.40;;;;;;;5.98;100.00;152898.16;5019235;28;20452;-75
2024/03/12 04:02:18;;;;;;;5.30;3.90;;;;;;;6.01;100.00;152905.88;5019527;28;20983;-75
2024/03/12 04:04:46;;;;;;;3.90;3.47;;;;;;;6.06;100.00;152918.78;5022740;28;20450;-75
2024/03/12 04:07:13;;;;;;;4.00;3.63;;;;;;;6.10;100.00;152927.84;5020528;28;20579;-75
2024/03/12 04:09:40;;;;;;;3.67;3.23;;;;;;;6.11;100.00;152930.44;5014434;28;20456;-75
2024/03/12 04:12:07;;;;;;;4.00;3.40;;;;;;;6.12;100.00;152934.28;5025162;28;20443;-74
2024/03/12 04:14:34;;;;;;;3.97;3.57;;;;;;;6.13;100.00;152936.88;5009814;28;20433;-75
2024/03/12 04:17:03;;;;;;;3.30;2.97;;;;;;;6.18;100.00;152947.19;4986054;28;20439;-75
2024/03/12 04:19:32;;;;;;;3.03;2.60;;;;;;;6.23;100.00;152960.06;5023251;28;20781;-74
2024/03/12 04:22:00;;;;;;;3.83;3.43;;;;;;;6.23;100.00;152960.06;5018818;28;20484;-75
2024/03/12 04:24:26;;;;;;;3.93;3.30;;;;;;;6.24;100.00;152963.97;5006209;28;20464;-75
2024/03/12 04:26:54;;;;;;;3.77;3.10;;;;;;;6.26;100.00;152967.81;5006986;28;20456;-75
2024/03/12 04:29:21;;;;;;;3.80;3.50;;;;;;;6.26;100.00;152967.81;4999500;28;20450;-75
2024/03/12 04:31:47;;;;;;;3.53;3.23;;;;;;;6.28;100.00;152972.97;5023702;28;20440;-75
2024/03/12 04:34:14;;;;;;;3.47;3.17;;;;;;;6.28;100.00;152972.97;5000335;28;20553;-74
2024/03/12 04:36:41;;;;;;;3.73;3.10;;;;;;;6.30;100.00;152978.16;5012160;28;20463;-75
2024/03/12 04:39:31;;;;;;;4.80;3.57;;;;;;;6.33;100.00;152985.91;5021237;28;20860;-75
2024/03/12 04:42:01;;;;;;;3.20;2.90;;;;;;;6.34;100.00;152988.47;5011673;28;21053;-75
2024/03/12 04:44:28;;;;;;;4.03;3.10;;;;;;;6.35;100.00;152992.38;4985242;28;20479;-75
2024/03/12 04:46:55;;;;;;;4.27;3.10;;;;;;;6.37;100.00;152996.22;4999876;28;20452;-75
2024/03/12 04:49:21;;;;;;;4.00;3.50;;;;;;;6.37;100.00;152996.22;5018108;28;20525;-75
2024/03/12 04:51:48;;;;;;;3.27;2.97;;;;;;;6.38;100.00;152998.81;5000212;28;20956;-75
2024/03/12 04:54:16;;;;;;;3.83;3.23;;;;;;;6.39;100.00;153001.38;4997100;28;20428;-75
2024/03/12 04:56:43;;;;;;;3.10;2.80;;;;;;;6.39;100.00;153001.38;5001397;28;20455;-74
2024/03/12 04:59:10;;;;;;;3.50;2.80;;;;;;;6.40;100.00;153003.97;5023344;28;20447;-75
2024/03/12 05:01:36;;;;;;;4.37;3.87;;;;;;;6.39;100.00;153002.66;5020336;28;21026;-75
2024/03/12 05:04:03;;;;;;;4.60;3.40;;;;;;;6.39;100.00;153002.66;5018103;28;20473;-75
2024/03/12 05:06:30;;;;;;;3.77;3.40;;;;;;;6.41;100.00;153006.53;5016871;28;20451;-74
2024/03/12 05:08:57;;;;;;;4.57;3.20;;;;;;;6.42;100.00;153009.13;5014201;28;20586;-75
2024/03/12 05:11:25;;;;;;;3.53;3.20;;;;;;;6.42;100.00;153009.13;5014455;28;20543;-74
2024/03/12 05:13:51;;;;;;;3.50;2.70;;;;;;;6.43;100.00;153013.03;5021423;28;20799;-75
2024/03/12 05:16:18;;;;;;;4.30;3.03;;;;;;;6.42;100.00;153010.41;4985157;28;20435;-75
2024/03/12 05:18:44;;;;;;;3.20;2.90;;;;;;;6.44;100.00;153014.28;5025124;28;20451;-74
2024/03/12 05:21:11;;;;;;;4.03;3.10;;;;;;;6.45;100.00;153016.88;5020272;28;20969;-74
2024/03/12 05:23:37;;;;;;;4.40;3.37;;;;;;;6.44;100.00;153015.56;5024557;28;20483;-74
2024/03/12 05:26:04;;;;;;;3.70;3.03;;;;;;;6.46;100.00;153019.47;5020044;28;20467;-74
2024/03/12 05:28:32;;;;;;;4.20;3.63;;;;;;;6.46;100.00;153019.47;5021085;28;20989;-74
2024/03/12 05:30:59;;;;;;;3.90;3.47;;;;;;;6.47;100.00;153022.00;5018854;28;20438;-74
2024/03/12 05:33:28;;;;;;;3.73;3.37;;;;;;;6.48;100.00;153024.63;5026791;28;20531;-75
2024/03/12 05:35:54;;;;;;;4.50;3.40;;;;;;;6.47;100.00;153022.00;5017874;28;20453;-74
2024/03/12 05:38:32;;;;;;;5.03;3.30;;;;;;;6.48;100.00;153024.63;4979724;28;20456;-75
2024/03/12 05:50:16;;;;;;;3.57;3.20;;;;;;;6.55;100.00;153042.66;5012605;28;20451;-74
2024/03/12 05:52:45;;;;;;;3.63;3.33;;;;;;;6.57;100.00;153047.81;5008648;28;20450;-75
2024/03/12 05:55:15;;;;;;;4.13;3.40;;;;;;;6.57;100.00;153047.81;5020872;28;20471;-75
2024/03/12 05:57:41;;;;;;;4.33;3.17;;;;;;;6.58;100.00;153050.41;5024827;28;20454;-74
2024/03/12 06:00:11;;;;;;;6.37;4.00;;;;;;;6.58;100.00;153051.72;5011981;28;20464;-74
2024/03/12 06:02:39;;;;;;;3.57;3.27;;;;;;;6.60;100.00;153055.56;5018094;28;20923;-75
2024/03/12 06:05:06;;;;;;;3.47;3.00;;;;;;;6.60;100.00;153056.88;5011633;28;20830;-75
2024/03/12 06:07:33;;;;;;;4.57;3.90;;;;;;;6.61;100.00;153059.47;5010529;28;20590;-75
2024/03/12 06:10:00;;;;;;;4.20;3.70;;;;;;;6.62;100.00;153060.72;4977612;28;20453;-74
2024/03/12 06:12:27;;;;;;;4.30;3.90;;;;;;;6.61;100.00;153059.47;5014600;28;20487;-75
2024/03/12 06:14:53;;;;;;;4.00;3.37;;;;;;;6.60;100.00;153056.88;5011950;28;20491;-75
2024/03/12 06:17:21;;;;;;;5.07;3.70;;;;;;;6.62;100.00;153060.72;5011783;28;20456;-75
2024/03/12 06:19:48;;;;;;;4.17;3.47;;;;;;;6.63;100.00;153063.31;4996618;28;20467;-75
2024/03/12 06:22:16;;;;;;;3.77;3.13;;;;;;;6.63;100.00;153063.31;4995483;28;20487;-75
2024/03/12 06:24:42;;;;;;;4.10;3.50;;;;;;;6.61;100.00;153058.16;5012408;28;20558;-74
2024/03/12 06:27:09;;;;;;;4.83;3.93;;;;;;;6.61;100.00;153058.16;5016058;28;20462;-75
2024/03/12 06:29:36;;;;;;;5.07;3.53;;;;;;;6.61;100.00;153059.47;5013803;28;20491;-75
2024/03/12 06:32:02;;;;;;;4.97;3.80;;;;;;;6.63;100.00;153064.63;4996373;28;21056;-74
2024/03/12 06:34:31;;;;;;;3.83;3.47;;;;;;;6.66;100.00;153071.06;5014213;28;20860;-75
2024/03/12 06:36:58;;;;;;;3.87;3.20;;;;;;;6.68;100.00;153076.22;5013468;28;20803;-75
2024/03/12 06:39:31;;;;;;;5.20;4.60;;;;;;;6.70;100.00;153082.66;5013175;28;20559;-74
2024/03/12 06:41:59;;;;;;;5.27;4.30;;;;;;;6.72;100.00;153087.81;5017068;28;20502;-74
2024/03/12 06:44:26;;;;;;;7.33;5.87;;;;;;;6.73;100.00;153089.13;5011506;28;20615;-75
2024/03/12 06:46:53;;;;;;;4.47;3.90;;;;;;;6.74;100.00;153093.03;5014919;28;20555;-74
2024/03/12 06:49:20;;;;;;;5.93;4.17;;;;;;;6.78;100.00;153100.78;5015987;28;20496;-74
2024/03/12 06:51:48;;;;;;;4.60;3.97;;;;;;;6.79;100.00;153104.63;4977201;28;20453;-75
2024/03/12 06:54:15;;;;;;;4.50;3.63;;;;;;;6.81;100.00;153109.78;5016714;28;21049;-74
2024/03/12 06:56:42;;;;;;;7.17;3.60;;;;;;;6.82;100.00;153112.38;4996428;28;20459;-74
2024/03/12 06:59:10;;;;;;;4.80;4.30;;;;;;;6.84;100.00;153117.53;5014276;28;20482;-74
2024/03/12 07:01:40;;;;;;;7.17;4.03;;;;;;;6.86;100.00;153121.44;5015759;28;20878;-74
2024/03/12 07:04:08;;;;;;;4.13;3.73;;;;;;;6.87;100.00;153123.97;5012694;28;20477;-74
2024/03/12 07:06:35;;;;;;;4.20;3.80;;;;;;;6.89;100.00;153129.13;4998798;28;20577;-75
2024/03/12 07:09:09;;;;;;;4.83;4.30;;;;;;;6.91;100.00;153135.59;5018021;28;20556;-74
2024/03/12 07:11:39;;;;;;;3.53;3.23;;;;;;;6.95;100.00;153144.63;5018270;28;20437;-74
2024/03/12 07:14:12;;;;;;;4.10;3.67;;;;;;;6.98;100.00;153153.69;5000522;28;20469;-74
2024/03/12 07:16:42;;;;;;;4.70;3.57;;;;;;;7.01;100.00;153161.44;5017422;28;20447;-74
2024/03/12 07:19:10;;;;;;;5.10;4.60;;;;;;;7.03;100.00;153166.59;5017179;28;20517;-74
2024/03/12 07:21:37;;;;;;;5.10;4.10;;;;;;;7.04;100.00;153169.16;4998798;28;20462;-74
2024/03/12 07:24:07;;;;;;;3.67;3.27;;;;;;;7.07;100.00;153175.66;5017693;28;20563;-74
2024/03/12 07:26:34;;;;;;;5.10;4.57;;;;;;;7.11;100.00;153187.25;5020095;28;20531;-74
2024/03/12 07:29:04;;;;;;;4.33;3.90;;;;;;;7.13;100.00;153191.09;5021040;28;20472;-74
2024/03/12 07:31:33;;;;;;;4.83;3.80;;;;;;;7.14;100.00;153193.72;5020523;28;20455;-75
2024/03/12 07:34:00;;;;;;;3.93;3.53;;;;;;;7.20;100.00;153210.47;5019481;28;20838;-75
2024/03/12 07:36:27;;;;;;;4.27;3.87;;;;;;;7.21;100.00;153213.06;5005174;28;20471;-75
2024/03/12 07:38:54;;;;;;;3.80;3.00;;;;;;;7.23;100.00;153218.22;5001602;28;20462;-75
2024/03/12 07:41:23;;;;;;;4.03;3.63;;;;;;;7.24;100.00;153220.81;5019895;28;20521;-75
2024/03/12 07:43:49;;;;;;;4.53;3.23;;;;;;;7.26;100.00;153225.97;5019126;28;20467;-75
2024/03/12 07:46:17;;;;;;;4.13;3.20;;;;;;;7.30;100.00;153235.03;5020198;28;20954;-75
2024/03/12 07:48:44;;;;;;;3.90;3.40;;;;;;;7.31;100.00;153237.59;5019176;28;20491;-74
2024/03/12 07:51:10;;;;;;;3.67;3.00;;;;;;;7.32;100.00;153241.47;5000116;28;20475;-74
2024/03/12 07:53:37;;;;;;;4.03;3.10;;;;;;;7.33;100.00;153244.03;5017366;28;20497;-74
2024/03/12 07:56:06;;;;;;;3.20;2.90;;;;;;;7.35;100.00;153249.25;5002325;28;20487;-75
2024/03/12 07:58:35;;;;;;;3.50;3.20;;;;;;;7.38;100.00;153254.41;5018352;28;20466;-74
2024/03/12 08:01:02;;;;;;;3.47;2.93;;;;;;;7.40;100.00;153260.84;5016972;28;20954;-74
2024/03/12 08:03:29;;;;;;;3.57;2.70;;;;;;;7.41;100.00;153262.16;5016878;28;20475;-74
2024/03/12 08:05:56;;;;;;;3.77;3.00;;;;;;;7.41;100.00;153263.44;5018897;28;20467;-74
2024/03/12 08:08:22;;;;;;;2.40;2.00;;;;;;;7.43;100.00;153267.31;5021924;28;20994;-74
2024/03/12 08:10:49;;;;;;;2.43;2.00;;;;;;;7.45;100.00;153272.47;5019255;28;20459;-74
2024/03/12 08:13:15;;;;;;;2.43;2.13;;;;;;;7.46;100.00;153275.06;5021588;28;20527;-74
2024/03/12 08:15:45;;;;;;;3.40;2.40;;;;;;;7.46;100.00;153276.34;5018879;28;20490;-75
2024/03/12 08:18:12;;;;;;;2.33;2.13;;;;;;;7.49;100.00;153282.81;5018162;28;20541;-74
2024/03/12 08:20:39;;;;;;;1.90;1.50;;;;;;;7.51;100.00;153287.97;5019075;28;20854;-74
2024/03/12 08:23:07;;;;;;;2.50;1.77;;;;;;;7.54;100.00;153295.72;5017561;28;20487;-75
2024/03/12 08:25:33;;;;;;;2.33;1.80;;;;;;;7.58;100.00;153306.03;5016912;28;21070;-74
2024/03/12 08:28:00;;;;;;;1.83;1.70;;;;;;;7.58;100.00;153307.34;5017582;28;20468;-74
2024/03/12 08:30:28;;;;;;;2.17;1.60;;;;;;;7.60;100.00;153311.25;5019143;28;20954;-75
2024/03/12 08:32:58;;;;;;;2.03;1.60;;;;;;;7.60;100.00;153311.25;5002611;28;20471;-75
2024/03/12 08:35:25;;;;;;;1.90;1.70;;;;;;;7.62;100.00;153316.41;5018315;28;20452;-74
2024/03/12 08:37:52;;;;;;;2.30;1.53;;;;;;;7.60;100.00;153311.25;4984852;28;20517;-75
2024/03/12 08:40:18;;;;;;;2.90;1.77;;;;;;;7.63;100.00;153318.94;5017064;28;20455;-74
2024/03/12 08:42:45;;;;;;;4.33;1.70;;;;;;;7.62;100.00;153317.69;5022931;28;20460;-74
2024/03/12 08:45:14;;;;;;;2.17;1.60;;;;;;;7.66;100.00;153326.72;5016190;28;20476;-74
2024/03/12 08:47:41;;;;;;;2.03;1.60;;;;;;;7.65;100.00;153324.16;5022102;28;20551;-74
2024/03/12 08:50:10;;;;;;;2.00;1.60;;;;;;;7.66;100.00;153328.00;5020052;28;20452;-75
2024/03/12 08:52:37;;;;;;;3.00;1.57;;;;;;;7.66;100.00;153328.00;5017958;28;20829;-75
2024/03/12 08:55:04;;;;;;;1.70;1.50;;;;;;;7.70;100.00;153338.38;5000524;28;20944;-74
2024/03/12 08:57:31;;;;;;;2.13;1.57;;;;;;;7.74;100.00;153348.69;5003719;28;20877;-74
2024/03/12 08:59:58;;;;;;;2.67;1.87;;;;;;;7.76;100.00;153353.84;5019994;28;20464;-74
2024/03/12 09:02:25;;;;;;;2.20;1.70;;;;;;;7.77;100.00;153355.13;5020510;28;20452;-74
2024/03/12 09:04:51;;;;;;;2.90;2.27;;;;;;;7.79;100.00;153361.59;5017251;28;20480;-74
2024/03/12 09:07:19;;;;;;;2.47;1.70;;;;;;;7.84;100.00;153373.19;5022419;28;20819;-75
2024/03/12 09:09:46;;;;;;;3.60;2.07;;;;;;;7.89;100.00;153386.13;5019442;28;20471;-75
2024/03/12 09:12:13;;;;;;;2.03;1.60;;;;;;;7.91;100.00;153391.31;5019172;28;20461;-74
2024/03/12 09:14:40;;;;;;;1.73;1.40;;;;;;;7.90;100.00;153388.72;5017939;28;20448;-74
2024/03/12 09:17:07;;;;;;;2.00;1.43;;;;;;;7.96;100.00;153405.53;5015226;28;20471;-74
2024/03/12 09:19:33;;;;;;;1.50;1.20;;;;;;;8.01;100.00;153415.84;5005334;28;20448;-74
2024/03/12 09:22:00;;;;;;;4.53;1.77;;;;;;;8.04;100.00;153424.91;5018190;28;20463;-74
2024/03/12 09:24:28;;;;;;;2.50;1.87;;;;;;;8.06;100.00;153430.06;5014863;28;20487;-74
2024/03/12 09:26:55;;;;;;;2.53;1.80;;;;;;;8.12;100.00;153445.59;5001619;28;20452;-74
2024/03/12 09:29:22;;;;;;;3.07;2.07;;;;;;;8.13;100.00;153448.13;5018488;28;20448;-75
2024/03/12 09:31:53;;;;;;;2.23;1.80;;;;;;;8.18;100.00;153461.06;5019843;28;20457;-75
2024/03/12 09:34:21;;;;;;;3.20;1.87;;;;;;;8.26;100.00;153480.50;5018995;28;20448;-75
2024/03/12 09:36:47;;;;;;;5.00;1.80;;;;;;;8.35;100.00;153505.06;5019740;28;20462;-75
2024/03/12 09:39:14;;;;;;;2.50;1.60;;;;;;;8.40;100.00;153518.00;5019571;28;20866;-75
2024/03/12 09:41:49;;;;;;;3.20;2.10;;;;;;;8.46;100.00;153533.53;4987831;28;20551;-75
2024/03/12 09:44:16;;;;;;;2.57;1.77;;;;;;;8.50;100.00;153542.53;5013765;28;20480;-75
2024/03/12 09:46:45;;;;;;;4.10;2.10;;;;;;;8.51;100.00;153546.44;5006774;28;20880;-75
2024/03/12 09:49:13;;;;;;;2.70;2.07;;;;;;;8.54;100.00;153552.91;5016513;28;20787;-75
2024/03/12 09:51:40;;;;;;;5.40;2.40;;;;;;;8.56;100.00;153558.06;4998352;28;20452;-75
2024/03/12 09:54:07;;;;;;;3.93;2.77;;;;;;;8.57;100.00;153561.97;4997936;28;20467;-75
2024/03/12 09:56:34;;;;;;;3.77;2.17;;;;;;;8.57;100.00;153560.66;5002171;28;20487;-75
2024/03/12 09:59:02;;;;;;;3.20;2.27;;;;;;;8.61;100.00;153570.97;5016606;28;20456;-75
2024/03/12 10:01:29;;;;;;;3.30;2.30;;;;;;;8.62;100.00;153573.59;5000246;28;20533;-75
2024/03/12 10:03:55;;;;;;;3.20;2.00;;;;;;;8.60;100.00;153568.44;5001216;28;20483;-75
2024/03/12 10:06:23;;;;;;;4.57;2.20;;;;;;;8.58;100.00;153564.53;5014587;28;20931;-75
2024/03/12 10:08:49;;;;;;;3.33;2.40;;;;;;;8.61;100.00;153569.69;5019079;28;20494;-75
2024/03/12 10:11:22;;;;;;;4.30;2.70;;;;;;;8.61;100.00;153569.69;5019284;28;20459;-75
2024/03/12 10:13:56;;;;;;;4.30;2.67;;;;;;;8.66;100.00;153582.66;5015329;28;20445;-75
2024/03/12 10:16:25;;;;;;;3.43;2.40;;;;;;;8.67;100.00;153585.22;4998318;28;20880;-75
2024/03/12 10:19:07;;;;;;;3.70;2.90;;;;;;;8.69;100.00;153590.38;5020220;28;20910;-75
2024/03/12 10:21:34;;;;;;;4.40;2.40;;;;;;;8.71;100.00;153596.81;5002962;28;20446;-75
2024/03/12 10:24:11;;;;;;;2.50;2.10;;;;;;;8.79;100.00;153616.25;4996982;28;20496;-75
2024/03/12 10:26:39;;;;;;;4.30;2.63;;;;;;;8.82;100.00;153623.97;5013167;28;20475;-75
2024/03/12 10:29:09;;;;;;;2.53;2.17;;;;;;;8.82;100.00;153623.97;4999748;28;20467;-75
2024/03/12 10:31:39;;;;;;;3.63;2.40;;;;;;;8.84;100.00;153629.19;5019030;28;20440;-75
2024/03/12 10:34:10;;;;;;;3.13;2.50;;;;;;;8.83;100.00;153627.88;4998041;28;20461;-75
2024/03/12 10:36:37;;;;;;;2.50;1.83;;;;;;;8.81;100.00;153621.41;5016348;28;20547;-75
2024/03/12 10:39:07;;;;;;;3.63;2.07;;;;;;;8.82;100.00;153625.28;4995803;28;20555;-75
2024/03/12 10:41:34;;;;;;;1.83;1.50;;;;;;;8.84;100.00;153629.19;5015898;28;20459;-75
2024/03/12 10:44:05;;;;;;;2.63;2.00;;;;;;;8.85;100.00;153631.75;5019294;28;20489;-75
2024/03/12 10:46:31;;;;;;;3.03;1.80;;;;;;;8.85;100.00;153631.75;5004067;28;20457;-75
2024/03/12 10:49:00;;;;;;;2.43;1.70;;;;;;;8.87;100.00;153638.22;5019188;28;20472;-75
2024/03/12 10:51:27;;;;;;;2.30;2.07;;;;;;;8.85;100.00;153631.75;5003660;28;20889;-75
2024/03/12 10:53:54;;;;;;;1.90;1.43;;;;;;;8.86;100.00;153635.66;5019892;28;20487;-75
2024/03/12 10:56:21;;;;;;;2.60;1.97;;;;;;;8.89;100.00;153642.13;5019763;28;20449;-75
2024/03/12 10:58:48;;;;;;;3.23;1.70;;;;;;;8.90;100.00;153645.97;5019732;28;20466;-75
2024/03/12 11:01:16;;;;;;;3.50;2.30;;;;;;;8.93;100.00;153653.72;5023857;28;20448;-75
2024/03/12 11:03:43;;;;;;;2.13;1.67;;;;;;;8.94;100.00;153656.34;5023525;28;20467;-75
2024/03/12 11:06:13;;;;;;;2.73;1.87;;;;;;;8.97;99.69;153662.81;5003424;28;20505;-75
2024/03/12 11:08:40;;;;;;;1.60;1.37;;;;;;;9.02;99.50;153675.72;5018810;28;21088;-75
2024/03/12 11:11:10;;;;;;;2.27;1.83;;;;;;;9.01;98.44;153673.13;5021408;28;20468;-75
2024/03/12 11:13:36;;;;;;;2.40;1.73;;;;;;;9.02;98.34;153677.03;5027165;28;20440;-75
2024/03/12 11:16:09;;;;;;;5.10;2.07;;;;;;;9.03;98.00;153678.28;5011772;28;20463;-75
2024/03/12 11:18:38;;;;;;;2.90;1.60;;;;;;;9.03;98.37;153678.28;5019980;28;20518;-75
2024/03/12 11:21:05;;;;;;;3.20;1.90;;;;;;;9.06;97.83;153686.06;5020569;28;20455;-75
2024/03/12 11:23:33;;;;;;;2.80;1.90;;;;;;;9.07;98.19;153689.97;5019894;28;20835;-75
2024/03/12 11:26:04;;;;;;;2.40;1.60;;;;;;;9.08;97.30;153691.25;5019411;28;20969;-75
2024/03/12 11:28:32;;;;;;;1.93;1.57;;;;;;;9.13;96.95;153704.19;5020977;28;20514;-75
2024/03/12 11:31:04;;;;;;;2.27;1.70;;;;;;;9.13;97.16;153704.19;5019691;28;20582;-75
2024/03/12 11:33:45;;;;;;;4.90;1.57;;;;;;;9.13;96.79;153705.44;5022145;28;20503;-75
2024/03/12 11:36:13;;;;;;;2.10;1.70;;;;;;;9.15;97.35;153709.34;5021798;28;20538;-75
2024/03/12 11:38:41;;;;;;;1.57;1.00;;;;;;;9.16;97.09;153713.22;5021877;28;20857;-75